Seymour Johnson Air Force Base
KGSB : rendu visible

Aérodrome :











RETROUVEZ-NOUS SUR...

 
LOGIN :

S'inscrire | Disclaimer

   EN    FR    IT 

 









Légende :    VFR   VFR Marginal   IFR   IFR Intensif   IFR Très Intensif
Visi : 
Plafond : 
>= 8 km
>= 3000ft
5 à 8 km
1000 à 3000 ft
1500m à 5 km
500 à 1000 ft
800 à 1500m
200 à 500 ft
< 800m
< 200 ft
Symboles :   Orages  Brouillard  Fortes neiges  Fortes précipitations  Vent > 20 kt






- Altitude de l'aérodrome : 109 ft


KGSB - Seymour Johnson Air Force Base

DERNIER METAR :
  • 221129Z AUTO 00000KT 10SM BKN018 15/15 A2996 RMK AO2 BKN V SCT SLP148 $

METARs EXPIRÉS :
  • 221124Z 00000KT 10SM SCT018 15/15 A2995 RMK AO2A SLP145 $
  • 221056Z AUTO 10003KT 10SM CLR 15/15 A2996 RMK AO2 SLP148 T01520146 $
  • 220956Z AUTO 09006KT 10SM FEW085 15/15 A2999 RMK AO2 SLP158 T01540148 $
  • 220920Z AUTO 08007KT 10SM SCT020 16/15 A2999 RMK AO2 SLP158 $
  • 220859Z AUTO 09006KT 10SM SCT006 OVC020 16/15 A3000 RMK AO2 CIG 005V020 CIG 006 RWY08 SLP162 $

TAF AMD TAF KGSB
Valide du 22 à 10h jusqu'au 23 à 10h UTC


221030Z 2210/2310 VRB06KT 9999 BKN050 QNH2990INS
BECMG 2215/2216 16010KT 9000 -SHRA BKN010 OVC030 QNH2983INS
BECMG 2218/2219 18012KT 9000 -SHRA VCTS BKN007 OVC015CB QNH2976INS
TEMPO 2300/2302 23012G18KT 4800 -TSRA BKN005 OVC010CB
BECMG 2302/2303 29008KT 9999 NSW SCT025 QNH2982INS
BECMG 2305/2306 32006KT 9999 SKC QNH2987INS TX24/2220Z TN15/2210Z



MET'MAP, la Météo Aéronautique d'un coup d'oeil ! - Copyright ORBIFLY Décembre 2007 - Disclaimer

ORBIFLY MET'MAP TEAM :

Programmation & Développement : Alexandra Zaïnal
Conception & Développement : Baudouin d'Aumeries
Co-Programmation & Développement : Marc-Olivier Méhu
Soutien technique & logistique : Manuel Goepfert

Contact : metmap@orbifly.com




SOURCES & CREDITS :

   NOAA       Earth
Advisory